createdAt,value
2023-03-16T00:00:59.888Z,92.71
2023-03-16T00:01:59.882Z,92.40
2023-03-16T00:02:59.927Z,92.29
2023-03-16T00:03:59.819Z,92.29
2023-03-16T00:04:59.813Z,92.61
2023-03-16T00:05:59.792Z,92.86
2023-03-16T00:06:59.810Z,92.86
2023-03-16T00:07:59.785Z,93.07
2023-03-16T00:08:59.793Z,93.59
2023-03-16T00:09:59.762Z,93.70
2023-03-16T00:10:59.761Z,93.53
2023-03-16T00:11:59.733Z,93.43
2023-03-16T00:12:59.764Z,93.43
2023-03-16T00:13:59.736Z,93.43
2023-03-16T00:14:59.728Z,93.53
2023-03-16T00:15:59.778Z,93.53
2023-03-16T00:16:59.706Z,93.84
2023-03-16T00:17:59.694Z,94.16
2023-03-16T00:18:59.695Z,93.95
2023-03-16T00:19:59.679Z,93.74
2023-03-16T00:20:59.682Z,93.15
2023-03-16T00:21:59.645Z,92.63
2023-03-16T00:22:59.628Z,92.63
2023-03-16T00:23:59.622Z,92.52
2023-03-16T00:24:59.608Z,92.52
2023-03-16T00:25:59.625Z,92.63
2023-03-16T00:26:59.616Z,92.63
2023-03-16T00:27:59.591Z,92.63
2023-03-16T00:28:59.584Z,92.88
2023-03-16T00:29:59.581Z,93.05
2023-03-16T00:30:59.574Z,93.15
2023-03-16T00:31:59.637Z,93.26
2023-03-16T00:32:59.608Z,93.47
2023-03-16T00:33:59.541Z,93.93
2023-03-16T00:34:59.519Z,94.45
2023-03-16T00:35:59.538Z,95.08
2023-03-16T00:36:59.495Z,95.72
2023-03-16T00:37:59.519Z,96.13
2023-03-16T00:38:59.478Z,96.55
2023-03-16T00:39:59.467Z,96.66
2023-03-16T00:40:59.453Z,96.77
2023-03-16T00:41:59.453Z,96.66
2023-03-16T00:42:59.425Z,96.24
2023-03-16T00:43:59.433Z,95.82
2023-03-16T00:44:59.434Z,95.29
2023-03-16T00:45:59.487Z,94.45
2023-03-16T00:46:59.390Z,93.82
2023-03-16T00:47:59.392Z,93.30
2023-03-16T00:48:59.392Z,92.77
2023-03-16T00:49:59.372Z,91.89
2023-03-16T00:50:59.350Z,91.27
2023-03-16T00:51:59.351Z,90.74
2023-03-16T00:52:59.344Z,90.42
2023-03-16T00:53:59.334Z,90.22
2023-03-16T00:54:59.340Z,90.32
2023-03-16T00:55:59.323Z,90.64
2023-03-16T00:56:59.299Z,91.27
2023-03-16T00:57:59.295Z,91.58
2023-03-16T00:58:59.272Z,92.00
2023-03-16T00:59:59.322Z,92.21
2023-03-16T01:00:59.325Z,92.42
2023-03-16T01:01:59.246Z,92.42
2023-03-16T01:02:59.277Z,92.63
2023-03-16T01:03:59.214Z,92.52
2023-03-16T01:04:59.212Z,92.42
2023-03-16T01:05:59.237Z,92.42
2023-03-16T01:06:59.192Z,92.52
2023-03-16T01:07:59.190Z,92.52
2023-03-16T01:08:59.190Z,92.42
2023-03-16T01:09:59.188Z,92.21
2023-03-16T01:10:59.162Z,92.21
2023-03-16T01:11:59.210Z,92.10
2023-03-16T01:12:59.145Z,92.10
2023-03-16T01:13:59.144Z,92.21
2023-03-16T01:14:59.113Z,92.32
2023-03-16T01:15:59.109Z,92.42
2023-03-16T01:16:59.161Z,91.89
2023-03-16T01:17:59.138Z,91.27
2023-03-16T01:18:59.085Z,90.53
2023-03-16T01:22:23.311Z,89.79
2023-03-16T01:23:21.199Z,89.48
2023-03-16T01:24:21.188Z,89.10
2023-03-16T01:25:21.204Z,88.96
2023-03-16T01:26:21.172Z,88.75
2023-03-16T01:27:21.152Z,88.85
2023-03-16T01:28:21.189Z,88.89
2023-03-16T01:29:21.128Z,88.79
2023-03-16T01:30:21.132Z,89.00
2023-03-16T01:31:21.190Z,89.31
2023-03-16T01:32:21.094Z,89.31
2023-03-16T01:33:21.089Z,89.10
2023-03-16T01:34:21.123Z,89.21
2023-03-16T01:35:21.162Z,89.52
2023-03-16T01:36:21.145Z,89.73
2023-03-16T01:37:21.039Z,89.84
2023-03-16T01:38:21.043Z,89.73
2023-03-16T01:39:21.043Z,89.10
2023-03-16T01:40:21.090Z,88.68
2023-03-16T01:41:21.027Z,88.47
2023-03-16T01:42:20.995Z,88.79
2023-03-16T01:43:20.994Z,89.31
2023-03-16T01:44:21.008Z,89.52
2023-03-16T01:45:20.950Z,89.42
2023-03-16T01:46:21.024Z,89.31
2023-03-16T01:47:20.981Z,89.69
2023-03-16T01:48:20.969Z,89.94
2023-03-16T01:49:20.926Z,90.47
2023-03-16T01:50:20.957Z,90.67
2023-03-16T01:51:20.937Z,90.78
2023-03-16T01:52:20.898Z,90.99
2023-03-16T01:53:20.909Z,90.89
2023-03-16T01:54:20.867Z,90.57
2023-03-16T01:55:20.918Z,90.15
2023-03-16T01:56:20.874Z,89.73
2023-03-16T01:57:20.836Z,89.52
2023-03-16T01:58:20.855Z,89.31
2023-03-16T01:59:20.827Z,89.25
2023-03-16T02:00:20.825Z,89.35
2023-03-16T02:01:20.923Z,89.25
2023-03-16T02:02:20.806Z,88.79
2023-03-16T02:03:20.792Z,89.14
2023-03-16T02:04:20.821Z,89.21
2023-03-16T02:05:20.760Z,89.10
2023-03-16T02:06:20.764Z,88.30
2023-03-16T02:07:20.769Z,88.09
2023-03-16T02:08:20.752Z,88.41
2023-03-16T02:09:20.716Z,88.72
2023-03-16T02:10:20.727Z,88.79
2023-03-16T02:11:20.695Z,88.30
2023-03-16T02:12:20.735Z,88.62
2023-03-16T02:13:20.712Z,88.93
2023-03-16T02:14:20.678Z,89.04
2023-03-16T02:15:20.664Z,89.46
2023-03-16T02:16:20.668Z,89.77
2023-03-16T02:17:20.643Z,89.98
2023-03-16T02:18:20.629Z,89.87
2023-03-16T02:19:20.648Z,89.87
2023-03-16T02:20:20.626Z,88.82
2023-03-16T02:21:20.603Z,87.99
2023-03-16T02:22:20.616Z,87.77
2023-03-16T02:23:20.567Z,87.99
2023-03-16T02:24:20.563Z,87.77
2023-03-16T02:25:20.557Z,87.57
2023-03-16T02:26:20.559Z,87.92
2023-03-16T02:27:20.533Z,88.62
2023-03-16T02:28:20.524Z,88.82
2023-03-16T02:29:20.515Z,88.76
2023-03-16T02:30:20.497Z,89.07
2023-03-16T02:31:20.536Z,89.07
2023-03-16T02:32:20.473Z,88.97
2023-03-16T02:33:20.471Z,89.14
2023-03-16T02:34:20.490Z,89.25
2023-03-16T02:35:20.453Z,89.14
2023-03-16T02:36:20.496Z,89.04
2023-03-16T02:37:20.413Z,89.14
2023-03-16T02:38:20.434Z,89.25
2023-03-16T02:39:20.423Z,89.56
2023-03-16T02:40:20.412Z,89.98
2023-03-16T02:41:20.383Z,90.19
2023-03-16T02:42:20.394Z,90.09
2023-03-16T02:43:20.366Z,90.30
2023-03-16T02:44:20.357Z,90.09
2023-03-16T02:45:20.359Z,89.67
2023-03-16T02:46:20.381Z,89.35
2023-03-16T02:47:20.388Z,89.04
2023-03-16T02:48:20.319Z,89.39
2023-03-16T02:49:20.306Z,89.81
2023-03-16T02:50:20.305Z,90.12
2023-03-16T02:51:20.283Z,89.98
2023-03-16T02:52:20.280Z,89.77
2023-03-16T02:53:20.273Z,88.93
2023-03-16T02:54:20.254Z,88.62
2023-03-16T02:55:20.238Z,87.71
2023-03-16T02:56:20.250Z,87.46
2023-03-16T02:57:20.231Z,87.88
2023-03-16T02:58:20.230Z,88.34
2023-03-16T02:59:23.627Z,88.66
2023-03-16T03:00:20.180Z,88.72
2023-03-16T03:01:20.179Z,88.87
2023-03-16T03:02:20.199Z,89.04
2023-03-16T03:03:20.270Z,89.04
2023-03-16T03:04:20.137Z,89.04
2023-03-16T03:05:20.152Z,88.66
2023-03-16T03:06:20.142Z,88.34
2023-03-16T03:07:20.149Z,87.82
2023-03-16T03:08:20.147Z,87.40
2023-03-16T03:09:20.100Z,87.19
2023-03-16T03:10:20.109Z,86.98
2023-03-16T03:11:20.078Z,86.87
2023-03-16T03:12:20.080Z,86.77
2023-03-16T03:13:20.058Z,86.35
2023-03-16T03:14:20.086Z,86.87
2023-03-16T03:15:20.044Z,87.40
2023-03-16T03:16:20.276Z,87.71
2023-03-16T03:17:20.027Z,87.71
2023-03-16T03:18:20.021Z,87.71
2023-03-16T03:19:20.039Z,87.82
2023-03-16T03:20:20.018Z,87.29
2023-03-16T03:21:19.987Z,87.29
2023-03-16T03:22:19.961Z,87.71
2023-03-16T03:23:19.959Z,88.49
2023-03-16T03:24:19.946Z,89.01
2023-03-16T03:25:19.925Z,89.22
2023-03-16T03:26:19.986Z,89.43
2023-03-16T03:27:19.920Z,89.22
2023-03-16T03:28:19.905Z,88.91
2023-03-16T03:29:19.893Z,89.01
2023-03-16T03:30:19.905Z,88.91
2023-03-16T03:31:19.939Z,88.91
2023-03-16T03:32:19.891Z,89.22
2023-03-16T03:33:19.857Z,89.58
2023-03-16T03:34:19.850Z,89.89
2023-03-16T03:35:19.853Z,90.11
2023-03-16T03:36:19.835Z,90.53
2023-03-16T03:37:19.855Z,90.73
2023-03-16T03:38:19.804Z,90.80
2023-03-16T03:39:19.789Z,90.80
2023-03-16T03:40:19.783Z,90.84
2023-03-16T03:41:19.766Z,90.91
2023-03-16T03:42:19.762Z,90.80
2023-03-16T03:43:19.771Z,90.17
2023-03-16T03:44:19.739Z,89.58
2023-03-16T03:45:19.730Z,89.26
2023-03-16T03:46:19.822Z,89.37
2023-03-16T03:47:19.730Z,89.69
2023-03-16T03:48:19.934Z,89.89
2023-03-16T03:49:19.713Z,90.00
2023-03-16T03:50:19.672Z,89.89
2023-03-16T03:51:19.675Z,89.58
2023-03-16T03:52:19.646Z,89.16
2023-03-16T03:53:19.671Z,88.63
2023-03-16T03:54:19.795Z,88.63
2023-03-16T03:55:19.651Z,89.05
2023-03-16T03:56:19.622Z,89.26
2023-03-16T03:57:21.793Z,89.37
2023-03-16T03:58:19.656Z,89.26
2023-03-16T03:59:19.602Z,88.95
2023-03-16T04:00:19.633Z,88.63
2023-03-16T04:01:19.577Z,88.10
2023-03-16T04:02:19.683Z,87.79
2023-03-16T04:03:19.646Z,88.00
2023-03-16T04:04:19.533Z,88.42
2023-03-16T04:05:19.533Z,88.74
2023-03-16T04:06:19.556Z,88.84
2023-03-16T04:07:19.529Z,88.95
2023-03-16T04:08:19.506Z,89.16
2023-03-16T04:09:19.494Z,89.26
2023-03-16T04:10:19.491Z,89.89
2023-03-16T04:11:19.486Z,90.21
2023-03-16T04:12:19.515Z,90.48
2023-03-16T04:13:19.454Z,90.69
2023-03-16T04:14:19.469Z,91.01
2023-03-16T04:15:19.444Z,91.47
2023-03-16T04:16:19.469Z,91.64
2023-03-16T04:17:19.408Z,91.89
2023-03-16T04:18:19.429Z,92.31
2023-03-16T04:19:19.394Z,92.94
2023-03-16T04:20:19.362Z,93.51
2023-03-16T04:21:19.358Z,93.83
2023-03-16T04:22:19.374Z,94.10
2023-03-16T04:23:19.347Z,94.46
2023-03-16T04:24:19.377Z,94.78
2023-03-16T04:25:19.325Z,94.98
2023-03-16T04:26:19.341Z,94.98
2023-03-16T04:27:19.326Z,95.04
2023-03-16T04:28:19.325Z,94.94
2023-03-16T04:29:19.300Z,94.84
2023-03-16T04:30:19.320Z,94.73
2023-03-16T04:31:19.375Z,94.48
2023-03-16T04:32:19.277Z,94.17
2023-03-16T04:33:19.267Z,93.95
2023-03-16T04:34:19.241Z,93.85
2023-03-16T04:35:19.232Z,93.89
2023-03-16T04:36:19.236Z,94.31
2023-03-16T04:37:19.214Z,94.84
2023-03-16T04:38:19.224Z,95.15
2023-03-16T04:39:19.191Z,95.57
2023-03-16T04:40:19.180Z,95.89
2023-03-16T04:41:19.162Z,96.10
2023-03-16T04:42:19.172Z,96.41
2023-03-16T04:43:19.156Z,96.51
2023-03-16T04:44:19.197Z,96.62
2023-03-16T04:45:19.147Z,96.58
2023-03-16T04:46:19.179Z,96.69
2023-03-16T04:47:19.123Z,96.69
2023-03-16T04:48:19.113Z,96.79
2023-03-16T04:49:19.113Z,96.79
2023-03-16T04:50:19.105Z,96.69
2023-03-16T04:51:19.073Z,96.43
2023-03-16T04:52:19.068Z,96.12
2023-03-16T04:53:19.050Z,95.80
2023-03-16T04:54:19.058Z,95.38
2023-03-16T04:55:19.077Z,95.17
2023-03-16T04:56:19.041Z,94.81
2023-03-16T04:57:19.022Z,94.60
2023-03-16T04:58:18.990Z,94.39
2023-03-16T04:59:18.988Z,94.65
2023-03-16T05:00:19.036Z,94.85
2023-03-16T05:01:19.044Z,94.92
2023-03-16T05:02:18.959Z,94.81
2023-03-16T05:03:18.957Z,94.60
2023-03-16T05:04:19.923Z,94.18
2023-03-16T05:05:18.999Z,93.76
2023-03-16T05:06:19.165Z,93.55
2023-03-16T05:07:18.917Z,93.44
2023-03-16T05:08:18.913Z,93.59
2023-03-16T05:09:18.905Z,93.59
2023-03-16T05:10:18.890Z,93.91
2023-03-16T05:11:18.876Z,94.01
2023-03-16T05:12:18.895Z,93.80
2023-03-16T05:13:18.863Z,94.01
2023-03-16T05:14:18.842Z,94.12
2023-03-16T05:15:18.832Z,94.23
2023-03-16T05:16:18.850Z,94.23
2023-03-16T05:17:18.812Z,94.01
2023-03-16T05:18:18.808Z,93.80
2023-03-16T05:19:18.776Z,93.49
2023-03-16T05:20:18.779Z,93.59
2023-03-16T05:21:18.761Z,93.70
2023-03-16T05:22:18.807Z,93.80
2023-03-16T05:23:18.795Z,93.91
2023-03-16T05:24:18.750Z,94.12
2023-03-16T05:25:18.749Z,94.33
2023-03-16T05:26:18.721Z,94.33
2023-03-16T05:27:18.737Z,94.23
2023-03-16T05:28:18.734Z,94.01
2023-03-16T05:29:18.689Z,94.12
2023-03-16T05:30:18.698Z,93.87
2023-03-16T05:31:18.738Z,93.66
2023-03-16T05:32:18.679Z,93.34
2023-03-16T05:33:18.686Z,93.34
2023-03-16T05:34:18.662Z,93.34
2023-03-16T05:35:18.650Z,93.24
2023-03-16T05:36:18.655Z,92.82
2023-03-16T05:37:18.644Z,92.82
2023-03-16T05:38:18.596Z,92.82
2023-03-16T05:39:18.618Z,92.82
2023-03-16T05:40:18.581Z,92.50
2023-03-16T05:41:18.561Z,92.29
2023-03-16T05:42:18.620Z,92.25
2023-03-16T05:43:18.550Z,92.08
2023-03-16T05:44:18.568Z,92.19
2023-03-16T05:45:18.550Z,92.40
2023-03-16T05:46:20.758Z,92.61
2023-03-16T05:47:18.523Z,92.71
2023-03-16T05:48:18.548Z,92.82
2023-03-16T05:49:18.498Z,92.92
2023-03-16T05:50:18.509Z,92.92
2023-03-16T05:51:18.496Z,92.82
2023-03-16T05:52:18.481Z,92.82
2023-03-16T05:53:18.469Z,92.82
2023-03-16T05:54:18.490Z,92.77
2023-03-16T05:55:18.447Z,92.67
2023-03-16T05:56:18.425Z,92.46
2023-03-16T05:57:18.406Z,91.83
2023-03-16T05:58:18.419Z,91.83
2023-03-16T05:59:18.405Z,92.04
2023-03-16T06:00:18.451Z,92.04
2023-03-16T06:01:18.489Z,91.83
2023-03-16T06:02:18.373Z,92.04
2023-03-16T06:03:18.412Z,92.46
2023-03-16T06:04:18.433Z,92.82
2023-03-16T06:05:18.340Z,92.77
2023-03-16T06:06:18.362Z,92.50
2023-03-16T06:07:18.323Z,92.50
2023-03-16T06:08:18.312Z,92.61
2023-03-16T06:09:18.291Z,92.71
2023-03-16T06:10:18.317Z,93.02
2023-03-16T06:11:18.306Z,93.13
2023-03-16T06:12:18.604Z,92.99
2023-03-16T06:13:18.268Z,92.67
2023-03-16T06:14:18.265Z,92.25
2023-03-16T06:15:18.252Z,91.72
2023-03-16T06:16:18.289Z,91.62
2023-03-16T06:17:18.239Z,91.52
2023-03-16T06:18:18.241Z,91.16
2023-03-16T06:19:18.204Z,90.95
2023-03-16T06:20:18.198Z,90.95
2023-03-16T06:21:18.180Z,90.95
2023-03-16T06:22:18.199Z,91.16
2023-03-16T06:23:18.232Z,91.16
2023-03-16T06:24:18.144Z,91.16
2023-03-16T06:25:18.132Z,91.27
2023-03-16T06:26:18.143Z,90.64
2023-03-16T06:27:18.142Z,90.42
2023-03-16T06:28:18.137Z,90.36
2023-03-16T06:29:18.131Z,90.57
2023-03-16T06:30:18.103Z,90.57
2023-03-16T06:31:18.086Z,90.78
2023-03-16T06:32:18.065Z,90.78
2023-03-16T06:33:18.066Z,90.67
2023-03-16T06:34:18.087Z,90.67
2023-03-16T06:35:18.048Z,90.67
2023-03-16T06:36:18.039Z,90.57
2023-03-16T06:37:18.041Z,90.67
2023-03-16T06:38:18.057Z,90.99
2023-03-16T06:39:18.011Z,91.20
2023-03-16T06:40:18.022Z,91.30
2023-03-16T06:41:18.016Z,91.30
2023-03-16T06:42:17.975Z,91.30
2023-03-16T06:43:17.966Z,91.05
2023-03-16T06:44:17.990Z,90.84
2023-03-16T06:45:17.942Z,90.53
2023-03-16T06:46:18.096Z,90.42
2023-03-16T06:47:17.926Z,90.53
2023-03-16T06:48:17.915Z,90.74
2023-03-16T06:49:17.910Z,90.84
2023-03-16T06:50:17.931Z,90.84
2023-03-16T06:51:17.931Z,90.95
2023-03-16T06:52:17.930Z,91.16
2023-03-16T06:53:17.898Z,91.16
2023-03-16T06:54:17.936Z,91.47
2023-03-16T06:55:17.902Z,91.58
2023-03-16T06:56:17.929Z,91.27
2023-03-16T06:57:17.842Z,91.37
2023-03-16T06:58:17.833Z,91.47
2023-03-16T06:59:17.810Z,91.58
2023-03-16T07:00:17.837Z,92.10
2023-03-16T07:01:17.906Z,92.63
2023-03-16T07:02:17.802Z,92.73
2023-03-16T07:03:17.788Z,92.42
2023-03-16T07:04:17.848Z,92.10
2023-03-16T07:05:17.761Z,92.21
2023-03-16T07:06:17.776Z,92.21
2023-03-16T07:07:17.719Z,91.85
2023-03-16T07:08:17.724Z,91.53
2023-03-16T07:09:17.706Z,91.53
2023-03-16T07:10:17.702Z,91.53
2023-03-16T07:11:17.720Z,91.43
2023-03-16T07:12:17.682Z,91.08
2023-03-16T07:13:17.676Z,91.43
2023-03-16T07:14:17.681Z,91.28
2023-03-16T07:15:17.662Z,91.39
2023-03-16T07:16:17.687Z,91.50
2023-03-16T07:17:17.676Z,91.18
2023-03-16T07:18:17.628Z,91.08
2023-03-16T07:19:17.618Z,90.97
2023-03-16T07:20:17.665Z,90.87
2023-03-16T07:21:17.593Z,90.66
2023-03-16T07:22:17.590Z,90.72
2023-03-16T07:23:17.563Z,90.72
2023-03-16T07:24:17.568Z,90.83
2023-03-16T07:25:17.578Z,90.93
2023-03-16T07:26:17.553Z,90.87
2023-03-16T07:27:17.527Z,90.66
2023-03-16T07:28:17.564Z,90.76
2023-03-16T07:29:17.495Z,91.08
2023-03-16T07:30:17.536Z,91.28
2023-03-16T07:31:17.554Z,91.81
2023-03-16T07:32:17.502Z,92.02
2023-03-16T07:33:17.491Z,92.08
2023-03-16T07:34:17.459Z,92.08
2023-03-16T07:35:17.436Z,91.87
2023-03-16T07:36:17.502Z,91.35
2023-03-16T07:37:21.788Z,91.46
2023-03-16T07:38:17.427Z,91.03
2023-03-16T07:39:17.676Z,91.56
2023-03-16T07:40:17.397Z,91.87
2023-03-16T07:41:17.409Z,91.98
2023-03-16T07:42:17.407Z,91.46
2023-03-16T07:43:17.374Z,91.46
2023-03-16T07:44:17.382Z,91.41
2023-03-16T07:45:17.374Z,91.41
2023-03-16T07:46:17.387Z,91.62
2023-03-16T07:47:17.346Z,91.62
2023-03-16T07:48:17.344Z,91.52
2023-03-16T07:49:17.316Z,91.37
2023-03-16T07:50:17.299Z,90.68
2023-03-16T07:51:17.309Z,90.68
2023-03-16T07:52:17.288Z,90.36
2023-03-16T07:53:17.303Z,90.26
2023-03-16T07:54:17.271Z,90.58
2023-03-16T07:55:17.280Z,90.78
2023-03-16T07:56:17.248Z,90.58
2023-03-16T07:57:17.262Z,90.89
2023-03-16T07:58:17.231Z,91.09
2023-03-16T07:59:19.203Z,91.20
2023-03-16T08:00:17.235Z,91.41
2023-03-16T08:01:17.199Z,91.62
2023-03-16T08:02:17.255Z,91.52
2023-03-16T08:03:17.219Z,91.20
2023-03-16T08:04:17.175Z,90.89
2023-03-16T08:05:17.146Z,90.74
2023-03-16T08:06:17.145Z,90.53
2023-03-16T08:07:17.132Z,90.43
2023-03-16T08:08:17.145Z,90.11
2023-03-16T08:09:17.142Z,90.01
2023-03-16T08:10:17.119Z,89.80
2023-03-16T08:11:17.096Z,89.59
2023-03-16T08:12:17.099Z,89.80
2023-03-16T08:13:17.096Z,89.76
2023-03-16T08:14:17.096Z,89.76
2023-03-16T08:15:17.110Z,89.55
2023-03-16T08:16:17.115Z,89.34
2023-03-16T08:17:17.057Z,89.55
2023-03-16T08:18:17.042Z,89.34
2023-03-16T08:19:17.030Z,89.97
2023-03-16T08:20:17.036Z,90.28
2023-03-16T08:21:17.008Z,89.97
2023-03-16T08:22:17.025Z,89.55
2023-03-16T08:23:17.035Z,89.13
2023-03-16T08:24:16.967Z,89.55
2023-03-16T08:25:17.001Z,90.39
2023-03-16T08:26:17.040Z,90.70
2023-03-16T08:27:16.943Z,90.59
2023-03-16T08:28:16.949Z,90.59
2023-03-16T08:29:16.985Z,91.12
2023-03-16T08:30:16.925Z,91.18
2023-03-16T08:31:16.984Z,90.14
2023-03-16T08:32:16.964Z,89.51
2023-03-16T08:33:16.903Z,89.61
2023-03-16T08:34:16.872Z,89.40
2023-03-16T08:35:16.961Z,89.83
2023-03-16T08:36:16.899Z,89.72
2023-03-16T08:37:16.944Z,89.20
2023-03-16T08:38:16.838Z,89.30
2023-03-16T08:39:16.820Z,89.78
2023-03-16T08:40:16.841Z,90.20
2023-03-16T08:41:16.829Z,90.31
2023-03-16T08:42:16.846Z,88.84
2023-03-16T08:43:16.814Z,89.11
2023-03-16T08:44:16.777Z,88.90
2023-03-16T08:45:16.780Z,88.80
2023-03-16T08:46:16.854Z,89.07
2023-03-16T08:47:16.783Z,89.07
2023-03-16T08:48:16.744Z,88.55
2023-03-16T08:49:16.754Z,86.94
2023-03-16T08:50:16.729Z,85.59
2023-03-16T08:51:16.717Z,84.92
2023-03-16T08:52:16.719Z,84.50
2023-03-16T08:53:16.710Z,84.30
2023-03-16T08:54:16.671Z,84.50
2023-03-16T08:55:16.665Z,84.47
2023-03-16T08:56:16.654Z,83.74
2023-03-16T08:57:16.686Z,82.70
2023-03-16T08:58:16.682Z,82.59
2023-03-16T08:59:27.355Z,82.14
2023-03-16T09:00:16.621Z,81.93
2023-03-16T09:01:16.620Z,81.62
2023-03-16T09:02:16.668Z,81.51
2023-03-16T09:03:16.590Z,79.74
2023-03-16T09:04:16.633Z,80.26
2023-03-16T09:05:16.581Z,81.30
2023-03-16T09:06:16.595Z,81.82
2023-03-16T09:07:16.544Z,81.72
2023-03-16T09:08:16.527Z,82.03
2023-03-16T09:09:16.561Z,82.14
2023-03-16T09:10:16.612Z,81.82
2023-03-16T09:11:16.515Z,81.20
2023-03-16T09:12:16.484Z,80.47
2023-03-16T09:13:16.508Z,80.47
2023-03-16T09:14:16.482Z,81.82
2023-03-16T09:15:16.475Z,82.45
2023-03-16T09:16:16.503Z,83.07
2023-03-16T09:17:16.466Z,83.22
2023-03-16T09:18:16.445Z,83.53
2023-03-16T09:19:16.448Z,83.32
2023-03-16T09:20:22.753Z,83.78
2023-03-16T09:21:16.400Z,84.50
2023-03-16T09:22:16.401Z,85.20
2023-03-16T09:23:16.404Z,84.78
2023-03-16T09:24:16.386Z,84.57
2023-03-16T09:25:16.410Z,84.78
2023-03-16T09:26:16.374Z,85.41
2023-03-16T09:27:16.485Z,85.68
2023-03-16T09:28:16.322Z,85.68
2023-03-16T09:29:16.329Z,84.43
2023-03-16T09:30:16.313Z,83.56
2023-03-16T09:31:16.455Z,83.14
2023-03-16T09:32:16.338Z,83.14
2023-03-16T09:33:16.305Z,83.25
2023-03-16T09:34:16.274Z,82.72
2023-03-16T09:35:16.292Z,82.41
2023-03-16T09:36:16.357Z,81.99
2023-03-16T09:37:16.324Z,82.10
2023-03-16T09:38:16.246Z,82.37
2023-03-16T09:39:16.227Z,82.37
2023-03-16T09:40:16.212Z,82.06
2023-03-16T09:41:16.202Z,81.85
2023-03-16T09:42:16.208Z,81.71
2023-03-16T09:43:16.185Z,82.03
2023-03-16T09:44:16.160Z,82.03
2023-03-16T09:45:16.170Z,81.81
2023-03-16T09:46:16.237Z,81.26
2023-03-16T09:47:16.252Z,81.15
2023-03-16T09:48:16.156Z,81.05
2023-03-16T09:49:16.125Z,80.94
2023-03-16T09:50:16.383Z,81.15
2023-03-16T09:51:16.178Z,81.15
2023-03-16T09:52:16.102Z,81.46
2023-03-16T09:53:16.091Z,82.03
2023-03-16T09:54:16.602Z,82.34
2023-03-16T09:55:16.063Z,82.23
2023-03-16T09:56:16.049Z,82.34
2023-03-16T09:57:16.055Z,83.03
2023-03-16T09:58:16.037Z,82.71
2023-03-16T09:59:16.031Z,82.71
2023-03-16T10:00:16.052Z,82.71
2023-03-16T10:01:16.092Z,82.71
2023-03-16T10:02:15.996Z,82.82
2023-03-16T10:03:15.982Z,83.13
2023-03-16T10:04:16.041Z,83.23
2023-03-16T10:05:16.020Z,83.03
2023-03-16T10:06:16.005Z,83.03
2023-03-16T10:07:15.952Z,82.82
2023-03-16T10:08:15.933Z,82.92
2023-03-16T10:09:15.943Z,83.13
2023-03-16T10:10:15.918Z,83.30
2023-03-16T10:11:15.894Z,82.99
2023-03-16T10:12:15.955Z,83.30
2023-03-16T10:13:15.884Z,83.30
2023-03-16T10:14:15.882Z,82.36
2023-03-16T10:15:15.934Z,82.84
2023-03-16T10:16:15.937Z,82.84
2023-03-16T10:17:15.859Z,82.53
2023-03-16T10:18:15.868Z,83.01
2023-03-16T10:19:15.829Z,83.12
2023-03-16T10:20:15.806Z,82.50
2023-03-16T10:21:15.793Z,81.63
2023-03-16T10:22:15.806Z,80.69
2023-03-16T10:23:15.786Z,80.90
2023-03-16T10:24:15.784Z,80.80
2023-03-16T10:25:15.785Z,80.90
2023-03-16T10:26:15.747Z,81.63
2023-03-16T10:27:15.760Z,82.67
2023-03-16T10:28:15.732Z,83.08
2023-03-16T10:29:15.719Z,82.98
2023-03-16T10:30:15.760Z,83.18
2023-03-16T10:31:15.758Z,83.50
2023-03-16T10:32:15.707Z,82.53
2023-03-16T10:33:15.781Z,82.63
2023-03-16T10:34:15.658Z,82.73
2023-03-16T10:35:15.653Z,81.80
2023-03-16T10:36:15.849Z,82.21
2023-03-16T10:37:15.635Z,82.63
2023-03-16T10:38:15.633Z,82.59
2023-03-16T10:39:15.611Z,81.66
2023-03-16T10:40:15.594Z,81.97
2023-03-16T10:41:15.589Z,80.68
2023-03-16T10:42:15.599Z,80.37
2023-03-16T10:43:15.579Z,80.47
2023-03-16T10:44:15.593Z,80.16
2023-03-16T10:45:15.568Z,80.37
2023-03-16T10:46:15.589Z,80.79
2023-03-16T10:47:15.582Z,80.89
2023-03-16T10:48:15.520Z,80.58
2023-03-16T10:49:15.527Z,80.44
2023-03-16T10:50:15.523Z,80.85
2023-03-16T10:51:15.509Z,81.16
2023-03-16T10:52:15.492Z,80.96
2023-03-16T10:53:15.484Z,80.65
2023-03-16T10:54:15.474Z,81.02
2023-03-16T10:55:15.583Z,81.54
2023-03-16T10:56:15.448Z,81.20
2023-03-16T10:57:15.450Z,79.95
2023-03-16T10:58:15.425Z,79.64
2023-03-16T10:59:15.428Z,76.95
2023-03-16T11:00:15.456Z,76.53
2023-03-16T11:01:15.438Z,77.36
2023-03-16T11:02:15.381Z,77.57
2023-03-16T11:03:15.457Z,77.05
2023-03-16T11:04:15.419Z,76.43
2023-03-16T11:05:15.353Z,74.05
2023-03-16T11:06:15.376Z,72.19
2023-03-16T11:07:15.341Z,69.60
2023-03-16T11:08:15.338Z,68.77
2023-03-16T11:09:15.337Z,69.80
2023-03-16T11:10:15.323Z,70.50
2023-03-16T11:11:15.345Z,70.91
2023-03-16T11:12:15.301Z,70.15
2023-03-16T11:13:15.384Z,70.98
2023-03-16T11:14:15.269Z,71.70
2023-03-16T11:15:25.326Z,67.98
2023-03-16T11:16:15.273Z,66.50
2023-03-16T11:17:15.268Z,64.95
2023-03-16T11:18:15.231Z,63.50
2023-03-16T11:19:15.230Z,64.20
2023-03-16T11:20:15.200Z,65.54
2023-03-16T11:21:15.210Z,64.61
2023-03-16T11:22:15.191Z,62.44
2023-03-16T11:23:15.201Z,61.79
2023-03-16T11:24:15.161Z,61.79
2023-03-16T11:25:15.150Z,60.65
2023-03-16T11:26:15.136Z,60.31
2023-03-16T11:27:15.127Z,60.21
2023-03-16T11:28:15.186Z,61.76
2023-03-16T11:29:15.128Z,60.11
2023-03-16T11:30:15.114Z,59.90
2023-03-16T11:31:15.168Z,59.98
2023-03-16T11:32:15.375Z,60.28
2023-03-16T11:33:15.083Z,60.18
2023-03-16T11:34:15.086Z,60.80
2023-03-16T11:35:15.070Z,61.32
2023-03-16T11:36:15.064Z,58.40
2023-03-16T11:37:15.052Z,57.06
2023-03-16T11:38:15.018Z,56.54
2023-03-16T11:39:15.021Z,56.85
2023-03-16T11:40:15.016Z,57.06
2023-03-16T11:41:14.993Z,56.85
2023-03-16T11:42:14.976Z,58.89
2023-03-16T11:43:14.969Z,57.96
2023-03-16T11:44:14.995Z,57.96
2023-03-16T11:45:14.959Z,57.96
2023-03-16T11:46:15.055Z,57.96
2023-03-16T11:47:14.948Z,57.65
2023-03-16T11:48:14.918Z,58.37
2023-03-16T11:49:14.916Z,58.79
2023-03-16T11:50:14.898Z,58.55
2023-03-16T11:51:14.910Z,57.83
2023-03-16T11:52:14.887Z,56.80
2023-03-16T11:53:14.855Z,58.04
2023-03-16T11:54:14.854Z,57.93
2023-03-16T11:55:14.853Z,57.32
2023-03-16T11:56:14.866Z,57.42
2023-03-16T11:57:14.822Z,57.29
2023-03-16T11:58:14.849Z,56.77
2023-03-16T11:59:14.809Z,55.95
2023-03-16T12:00:14.797Z,56.77
2023-03-16T12:01:14.800Z,57.39
2023-03-16T12:02:14.857Z,57.50
2023-03-16T12:03:14.842Z,56.88
2023-03-16T12:04:14.848Z,56.16
2023-03-16T12:05:14.740Z,55.74
2023-03-16T12:06:22.889Z,56.36
2023-03-16T12:07:14.724Z,55.95
2023-03-16T12:08:14.701Z,55.95
2023-03-16T12:09:14.694Z,55.82
2023-03-16T12:10:14.728Z,56.03
2023-03-16T12:11:14.674Z,55.72
2023-03-16T12:12:14.670Z,55.93
2023-03-16T12:13:14.660Z,56.75
2023-03-16T12:14:14.689Z,55.62
2023-03-16T12:15:14.643Z,53.35
2023-03-16T12:16:14.670Z,53.66
2023-03-16T12:17:14.621Z,55.00
2023-03-16T12:18:14.583Z,55.90
2023-03-16T12:19:14.581Z,54.56
2023-03-16T12:20:14.688Z,54.97
2023-03-16T12:21:14.578Z,54.35
2023-03-16T12:22:14.592Z,54.05
2023-03-16T12:23:14.553Z,55.28
2023-03-16T12:24:14.547Z,54.87
2023-03-16T12:25:14.539Z,54.46
2023-03-16T12:26:14.515Z,54.25
2023-03-16T12:27:14.510Z,54.97
2023-03-16T12:28:14.508Z,56.82
2023-03-16T12:29:14.483Z,55.90
2023-03-16T12:30:14.455Z,54.15
2023-03-16T12:31:14.507Z,53.43
2023-03-16T12:32:14.454Z,53.92
2023-03-16T12:33:14.483Z,54.13
2023-03-16T12:34:14.440Z,53.92
2023-03-16T12:35:14.431Z,53.30
2023-03-16T12:36:14.429Z,53.61
2023-03-16T12:37:14.460Z,54.85
2023-03-16T12:38:14.400Z,54.53
2023-03-16T12:39:14.414Z,55.36
2023-03-16T12:40:14.469Z,55.33
2023-03-16T12:41:17.365Z,54.51
2023-03-16T12:42:14.352Z,54.72
2023-03-16T12:43:14.333Z,55.23
2023-03-16T12:44:14.383Z,54.51
2023-03-16T12:45:14.309Z,54.00
2023-03-16T12:46:14.448Z,54.30
2023-03-16T12:47:14.290Z,53.28
2023-03-16T12:48:14.298Z,52.66
2023-03-16T12:49:14.273Z,52.86
2023-03-16T12:50:14.298Z,51.73
2023-03-16T12:51:14.287Z,51.94
2023-03-16T12:52:14.245Z,51.94
2023-03-16T12:53:14.246Z,51.92
2023-03-16T12:54:14.230Z,52.64
2023-03-16T12:55:14.214Z,52.73